Terminal Aerodrome Forecast
Issued by NWS

Home | Current Version | Previous Version | Graphics & Text | Print | Product List | Glossary On
Versions: 1 2 3 4 5 6 7 8 9 10 11 12 13 14 15 16 17 18 19 20 21 22 23 24
000
FTUS43 KBIS 241100
TAFDIK
TAF
KDIK 241127Z 2412/2512 13010KT P6SM VCSH SCT012 OVC045
      TEMPO 2412/2416 26014KT 3SM -RA BKN010 OVC025
     FM241600 27018G24KT 2SM -RASN BR BKN010 OVC015
     FM242000 29023G30KT P6SM VCSH SCT018 BKN035
     FM250200 30021G29KT P6SM SCT012 BKN025=

USA.gov is the U.S. government's official web portal to all federal, state and local government web resources and services.